Time;durP1;ratioP1;P1;durP2;ratioP2;P2;SDS_P1;SDS_P2;PMS_P1;PMS_P2;Temp;Humidity;BMP_temperature;BMP_pressure;BME280_temperature;BME280_humidity;BME280_pressure;Samples;Min_cycle;Max_cycle;Signal;HPM_P1;HPM_P2
2022/05/16 00:02:21;;;;;;;1.83;1.52;;;;;;;;;;5077526;28;20196;-83
2022/05/16 00:04:51;;;;;;;2.50;1.65;;;;;;;;;;5078731;28;20299;-84
2022/05/16 00:07:20;;;;;;;1.83;1.35;;;;;;;;;;5078216;28;20217;-84
2022/05/16 00:09:48;;;;;;;1.50;1.23;;;;;;;;;;5077917;28;20209;-84
2022/05/16 00:12:17;;;;;;;2.20;1.40;;;;;;;;;;5077016;28;20201;-84
2022/05/16 00:14:45;;;;;;;2.05;1.65;;;;;;;;;;5073781;28;20225;-86
2022/05/16 00:17:13;;;;;;;1.20;1.10;;;;;;;;;;5057066;28;20236;-83
2022/05/16 00:19:41;;;;;;;2.10;1.50;;;;;;;;;;5057921;28;20616;-84
2022/05/16 00:22:11;;;;;;;1.23;1.13;;;;;;;;;;5056681;28;20194;-83
2022/05/16 00:24:41;;;;;;;1.45;1.35;;;;;;;;;;5057446;28;20212;-84
2022/05/16 00:27:09;;;;;;;8.25;2.45;;;;;;;;;;5057421;28;20225;-83
2022/05/16 00:29:37;;;;;;;2.65;1.33;;;;;;;;;;5057704;28;20230;-83
2022/05/16 00:32:05;;;;;;;1.77;1.40;;;;;;;;;;5056935;28;20252;-85
2022/05/16 00:34:33;;;;;;;1.63;1.40;;;;;;;;;;5056614;28;20612;-84
2022/05/16 00:37:00;;;;;;;1.83;1.30;;;;;;;;;;5056879;28;20213;-83
2022/05/16 00:39:29;;;;;;;1.42;1.15;;;;;;;;;;5056773;28;20233;-84
2022/05/16 00:41:56;;;;;;;1.60;1.48;;;;;;;;;;5056262;28;20214;-83
2022/05/16 00:44:24;;;;;;;2.30;1.30;;;;;;;;;;5056627;28;20269;-84
2022/05/16 00:46:52;;;;;;;1.95;1.70;;;;;;;;;;5055625;28;20224;-83
2022/05/16 00:49:27;;;;;;;1.60;1.50;;;;;;;;;;5056925;28;20560;-85
2022/05/16 00:52:00;;;;;;;1.40;1.30;;;;;;;;;;5055817;28;20196;-84
2022/05/16 00:54:31;;;;;;;2.47;1.95;;;;;;;;;;5057583;28;20237;-85
2022/05/16 00:57:02;;;;;;;1.95;1.40;;;;;;;;;;5057861;28;20182;-84
2022/05/16 00:59:36;;;;;;;1.73;1.30;;;;;;;;;;5057945;28;20218;-83
2022/05/16 01:04:49;;;;;;;1.38;1.27;;;;;;;;;;5058344;28;20196;-85
2022/05/16 01:07:22;;;;;;;2.38;1.75;;;;;;;;;;5057607;28;20221;-83
2022/05/16 01:09:51;;;;;;;1.38;1.20;;;;;;;;;;5057283;28;20217;-85
2022/05/16 01:12:19;;;;;;;2.20;1.80;;;;;;;;;;5057936;28;20204;-83
2022/05/16 01:14:50;;;;;;;2.47;1.48;;;;;;;;;;5058209;28;20202;-84
2022/05/16 01:17:19;;;;;;;3.10;1.67;;;;;;;;;;5057488;28;20202;-84
2022/05/16 01:19:47;;;;;;;2.78;1.70;;;;;;;;;;5057506;28;20229;-84
2022/05/16 01:22:28;;;;;;;2.30;1.70;;;;;;;;;;5056275;28;20198;-84
2022/05/16 01:24:57;;;;;;;1.92;1.20;;;;;;;;;;5056204;28;20240;-84
2022/05/16 01:27:25;;;;;;;5.75;2.60;;;;;;;;;;5056661;28;20233;-83
2022/05/16 01:29:52;;;;;;;2.83;1.50;;;;;;;;;;5055550;28;20221;-83
2022/05/16 01:32:20;;;;;;;5.25;2.38;;;;;;;;;;5055919;28;20197;-84
2022/05/16 01:34:50;;;;;;;2.78;1.73;;;;;;;;;;5056047;28;20228;-84
2022/05/16 01:38:18;;;;;;;2.67;1.98;;;;;;;;;;5055418;28;20296;-85
2022/05/16 01:40:08;;;;;;;1.83;1.35;;;;;;;;;;5055863;28;20226;-84
2022/05/16 01:42:36;;;;;;;2.17;1.40;;;;;;;;;;5054402;28;20255;-84
2022/05/16 01:45:03;;;;;;;2.10;1.52;;;;;;;;;;5056907;28;20206;-84
2022/05/16 01:47:33;;;;;;;1.90;1.50;;;;;;;;;;5055793;28;20221;-84
2022/05/16 01:50:00;;;;;;;1.50;1.40;;;;;;;;;;5056582;28;20747;-84
2022/05/16 01:52:29;;;;;;;4.43;2.17;;;;;;;;;;5054572;28;20228;-84
2022/05/16 01:54:56;;;;;;;3.28;1.65;;;;;;;;;;5056073;28;20206;-83
2022/05/16 01:57:23;;;;;;;2.97;1.85;;;;;;;;;;5056270;28;20205;-84
2022/05/16 01:59:51;;;;;;;2.15;1.27;;;;;;;;;;5056570;28;20233;-83
2022/05/16 02:02:18;;;;;;;2.58;1.50;;;;;;;;;;5056878;28;20197;-85
2022/05/16 02:04:45;;;;;;;2.08;1.40;;;;;;;;;;5057047;28;20205;-83
2022/05/16 02:07:12;;;;;;;1.80;1.65;;;;;;;;;;5056139;28;20610;-85
2022/05/16 02:09:41;;;;;;;1.98;1.52;;;;;;;;;;5056469;28;20221;-83
2022/05/16 02:12:10;;;;;;;2.03;1.70;;;;;;;;;;5056457;28;20201;-83
2022/05/16 02:14:38;;;;;;;4.57;1.77;;;;;;;;;;5057000;28;20198;-83
2022/05/16 02:17:05;;;;;;;2.25;1.70;;;;;;;;;;5056589;28;20204;-84
2022/05/16 02:19:33;;;;;;;2.50;2.15;;;;;;;;;;5056860;28;20225;-83
2022/05/16 02:24:46;;;;;;;2.03;1.83;;;;;;;;;;5056508;28;20235;-85
2022/05/16 02:27:17;;;;;;;1.98;1.48;;;;;;;;;;5056751;28;20209;-83
2022/05/16 02:29:45;;;;;;;3.47;1.90;;;;;;;;;;5056790;28;20229;-83
2022/05/16 02:32:16;;;;;;;1.67;1.55;;;;;;;;;;5056312;28;20232;-83
2022/05/16 02:34:44;;;;;;;3.88;1.90;;;;;;;;;;5056413;28;20210;-84
2022/05/16 02:37:12;;;;;;;1.80;1.40;;;;;;;;;;5056527;28;20548;-83
2022/05/16 02:39:44;;;;;;;2.50;1.52;;;;;;;;;;5056143;28;20221;-83
2022/05/16 02:42:14;;;;;;;2.08;1.60;;;;;;;;;;5055760;28;20194;-83
2022/05/16 02:44:41;;;;;;;2.13;1.67;;;;;;;;;;5060014;28;20205;-83
2022/05/16 02:47:10;;;;;;;2.70;1.73;;;;;;;;;;5077234;28;20212;-84
2022/05/16 02:49:37;;;;;;;2.50;1.77;;;;;;;;;;5076576;28;20220;-84
2022/05/16 02:52:06;;;;;;;1.70;1.60;;;;;;;;;;5075656;28;20209;-84
2022/05/16 02:54:33;;;;;;;3.35;1.63;;;;;;;;;;5076530;28;20205;-84
2022/05/16 02:57:01;;;;;;;1.60;1.42;;;;;;;;;;5076712;28;20216;-84
2022/05/16 02:59:32;;;;;;;1.70;1.48;;;;;;;;;;5076736;28;20216;-84
2022/05/16 03:02:00;;;;;;;1.98;1.60;;;;;;;;;;5075240;28;20295;-83
2022/05/16 03:04:27;;;;;;;3.15;1.60;;;;;;;;;;5076471;28;20220;-83
2022/05/16 03:06:55;;;;;;;1.75;1.58;;;;;;;;;;5076411;28;20681;-84
2022/05/16 03:09:22;;;;;;;1.90;1.30;;;;;;;;;;5075710;28;20231;-84
2022/05/16 03:11:50;;;;;;;2.83;1.80;;;;;;;;;;5075363;28;20364;-84
2022/05/16 03:14:17;;;;;;;2.70;1.75;;;;;;;;;;5075681;28;20205;-84
2022/05/16 03:16:46;;;;;;;4.20;1.77;;;;;;;;;;5056065;28;20201;-84
2022/05/16 03:19:14;;;;;;;1.50;1.20;;;;;;;;;;5060005;28;20217;-84
2022/05/16 03:21:42;;;;;;;1.40;1.30;;;;;;;;;;5059683;28;20205;-84
2022/05/16 03:24:10;;;;;;;1.88;1.38;;;;;;;;;;5059854;28;20205;-84
2022/05/16 03:26:39;;;;;;;1.80;1.63;;;;;;;;;;5060550;28;20198;-83
2022/05/16 03:29:07;;;;;;;2.53;1.33;;;;;;;;;;5059597;28;20475;-84
2022/05/16 03:31:35;;;;;;;2.97;1.50;;;;;;;;;;5059440;28;20237;-85
2022/05/16 03:34:04;;;;;;;3.33;1.85;;;;;;;;;;5058018;28;20205;-85
2022/05/16 03:36:31;;;;;;;2.72;1.23;;;;;;;;;;5059834;28;20658;-84
2022/05/16 03:41:43;;;;;;;1.25;1.20;;;;;;;;;;5059180;28;20189;-84
2022/05/16 03:44:10;;;;;;;1.45;1.30;;;;;;;;;;5060207;28;20213;-85
2022/05/16 03:46:38;;;;;;;1.45;1.30;;;;;;;;;;5080278;28;20201;-84
2022/05/16 03:49:07;;;;;;;2.45;1.85;;;;;;;;;;5079833;28;20224;-84
2022/05/16 03:51:35;;;;;;;4.00;1.20;;;;;;;;;;5079297;28;20201;-84
2022/05/16 03:54:03;;;;;;;1.58;1.48;;;;;;;;;;5079767;28;20200;-83
2022/05/16 03:56:30;;;;;;;1.48;1.38;;;;;;;;;;5079833;28;20200;-84
2022/05/16 03:58:58;;;;;;;1.33;1.10;;;;;;;;;;5080174;28;20727;-84
2022/05/16 04:01:27;;;;;;;2.03;1.40;;;;;;;;;;5079995;28;20208;-84
2022/05/16 04:03:55;;;;;;;1.40;1.13;;;;;;;;;;5079220;28;20247;-84
2022/05/16 04:06:24;;;;;;;1.60;1.50;;;;;;;;;;5079019;28;20232;-84
2022/05/16 04:08:52;;;;;;;1.40;1.30;;;;;;;;;;5077812;28;20274;-83
2022/05/16 04:11:20;;;;;;;1.85;1.63;;;;;;;;;;5078162;28;20205;-84
2022/05/16 04:13:48;;;;;;;2.22;1.50;;;;;;;;;;5076968;28;20201;-83
2022/05/16 04:16:16;;;;;;;2.47;2.28;;;;;;;;;;5078692;28;20205;-85
2022/05/16 04:18:44;;;;;;;1.65;1.55;;;;;;;;;;5079410;28;20212;-84
2022/05/16 04:21:12;;;;;;;3.17;2.25;;;;;;;;;;5078741;28;20201;-83
2022/05/16 04:23:41;;;;;;;3.88;1.40;;;;;;;;;;5077580;28;20200;-85
2022/05/16 04:26:09;;;;;;;2.15;1.40;;;;;;;;;;5079134;28;20201;-83
2022/05/16 04:28:36;;;;;;;1.45;1.35;;;;;;;;;;5078844;28;20200;-83
2022/05/16 04:31:03;;;;;;;1.30;1.13;;;;;;;;;;5078706;28;20266;-83
2022/05/16 04:33:33;;;;;;;1.48;1.38;;;;;;;;;;5077168;28;20200;-84
2022/05/16 04:36:02;;;;;;;1.30;1.20;;;;;;;;;;5079272;28;20197;-85
2022/05/16 04:38:29;;;;;;;1.85;1.45;;;;;;;;;;5079893;28;20197;-85
2022/05/16 04:43:39;;;;;;;1.15;1.02;;;;;;;;;;5054952;28;20643;-83
2022/05/16 04:46:07;;;;;;;1.83;1.67;;;;;;;;;;5061705;28;20586;-83
2022/05/16 04:48:34;;;;;;;1.38;1.05;;;;;;;;;;5057539;28;20210;-84
2022/05/16 04:51:02;;;;;;;1.30;1.20;;;;;;;;;;5057618;28;20231;-84
2022/05/16 04:53:29;;;;;;;3.83;1.92;;;;;;;;;;5057724;28;20209;-84
2022/05/16 04:55:58;;;;;;;2.40;1.58;;;;;;;;;;5058282;28;20210;-85
2022/05/16 04:58:26;;;;;;;3.88;1.48;;;;;;;;;;5058709;28;20213;-83
2022/05/16 05:00:55;;;;;;;2.40;1.58;;;;;;;;;;5058163;28;20603;-84
2022/05/16 05:03:22;;;;;;;2.55;1.20;;;;;;;;;;5057730;28;20182;-84
2022/05/16 05:05:50;;;;;;;2.83;1.42;;;;;;;;;;5057861;28;20236;-83
2022/05/16 05:08:17;;;;;;;2.13;1.50;;;;;;;;;;5057033;28;20205;-83
2022/05/16 05:16:20;;;;;;;1.92;1.48;;;;;;;;;;5057350;28;20209;-80
2022/05/16 05:18:47;;;;;;;1.48;1.38;;;;;;;;;;5052384;28;20673;-76
2022/05/16 05:21:15;;;;;;;3.10;1.90;;;;;;;;;;5052420;28;20202;-77
2022/05/16 05:23:43;;;;;;;3.78;2.42;;;;;;;;;;5051190;28;20212;-77
2022/05/16 05:26:13;;;;;;;3.33;2.17;;;;;;;;;;5052777;28;20209;-77
2022/05/16 05:28:42;;;;;;;2.72;1.77;;;;;;;;;;5052479;28;20588;-77
2022/05/16 05:31:14;;;;;;;2.03;1.80;;;;;;;;;;5053080;28;20599;-78
2022/05/16 05:33:41;;;;;;;3.22;1.52;;;;;;;;;;5051704;28;20198;-77
2022/05/16 05:36:09;;;;;;;2.80;1.95;;;;;;;;;;5050630;28;20214;-76
2022/05/16 05:38:37;;;;;;;2.58;1.60;;;;;;;;;;5051775;28;20194;-76
2022/05/16 05:41:05;;;;;;;3.25;1.80;;;;;;;;;;5051580;28;20239;-77
2022/05/16 05:43:32;;;;;;;2.42;1.70;;;;;;;;;;5051109;28;20209;-76
2022/05/16 05:46:03;;;;;;;3.13;1.50;;;;;;;;;;5054923;28;20212;-76
2022/05/16 05:48:31;;;;;;;2.67;1.70;;;;;;;;;;5051211;28;20209;-77
2022/05/16 05:50:58;;;;;;;3.33;1.77;;;;;;;;;;5051760;28;20233;-77
2022/05/16 05:53:25;;;;;;;1.50;1.40;;;;;;;;;;5051016;28;20670;-77
2022/05/16 05:55:53;;;;;;;1.70;1.58;;;;;;;;;;5051594;28;20681;-77
2022/05/16 05:58:21;;;;;;;2.70;1.70;;;;;;;;;;5051802;28;20201;-77
2022/05/16 06:00:49;;;;;;;4.43;1.90;;;;;;;;;;5051677;28;20639;-77
2022/05/16 06:03:18;;;;;;;2.30;1.60;;;;;;;;;;5050839;28;20212;-77
2022/05/16 06:05:45;;;;;;;2.20;1.73;;;;;;;;;;5051566;28;20255;-77
2022/05/16 06:08:13;;;;;;;1.92;1.55;;;;;;;;;;5051540;28;20209;-77
2022/05/16 06:10:40;;;;;;;1.88;1.45;;;;;;;;;;5051283;28;20283;-77
2022/05/16 06:13:07;;;;;;;1.88;1.73;;;;;;;;;;5050131;28;20270;-77
2022/05/16 06:15:35;;;;;;;3.65;2.10;;;;;;;;;;5057296;28;20205;-77
2022/05/16 06:18:02;;;;;;;4.68;2.08;;;;;;;;;;5051497;28;20201;-77
2022/05/16 06:20:31;;;;;;;3.78;2.05;;;;;;;;;;5051031;28;20225;-77
2022/05/16 06:22:59;;;;;;;2.97;1.90;;;;;;;;;;5050571;28;20213;-77
2022/05/16 06:25:34;;;;;;;3.22;1.77;;;;;;;;;;5051344;28;20209;-77
2022/05/16 06:28:05;;;;;;;3.70;2.08;;;;;;;;;;5051388;28;20215;-77
2022/05/16 06:30:34;;;;;;;3.15;1.90;;;;;;;;;;5051441;28;20221;-77
2022/05/16 06:33:02;;;;;;;3.33;1.80;;;;;;;;;;5044148;28;20209;-77
2022/05/16 06:35:31;;;;;;;2.40;1.73;;;;;;;;;;5045241;28;20205;-77
2022/05/16 06:38:04;;;;;;;5.25;2.10;;;;;;;;;;5044677;28;20661;-77
2022/05/16 06:40:31;;;;;;;3.22;2.20;;;;;;;;;;5046025;28;20229;-77
2022/05/16 06:42:58;;;;;;;4.00;2.58;;;;;;;;;;5050896;28;20206;-78
2022/05/16 06:45:25;;;;;;;4.53;1.90;;;;;;;;;;5054023;28;20267;-77
2022/05/16 06:47:53;;;;;;;3.75;3.42;;;;;;;;;;5051422;28;20201;-77
2022/05/16 06:50:20;;;;;;;4.05;2.60;;;;;;;;;;5051076;28;20230;-77
2022/05/16 06:52:49;;;;;;;3.80;2.00;;;;;;;;;;5052112;28;20213;-77
2022/05/16 06:55:17;;;;;;;3.15;2.00;;;;;;;;;;5055150;28;20206;-77
2022/05/16 06:57:44;;;;;;;3.88;2.65;;;;;;;;;;5055295;28;20666;-77
2022/05/16 07:00:14;;;;;;;4.30;1.77;;;;;;;;;;5055169;28;20230;-77
2022/05/16 07:02:41;;;;;;;3.05;2.10;;;;;;;;;;5054412;28;20212;-77
2022/05/16 07:05:10;;;;;;;3.13;1.90;;;;;;;;;;5054636;28;20259;-76
2022/05/16 07:07:37;;;;;;;3.28;2.17;;;;;;;;;;5055579;28;20231;-78
2022/05/16 07:10:07;;;;;;;2.70;2.05;;;;;;;;;;5055121;28;20283;-77
2022/05/16 07:12:35;;;;;;;3.80;2.50;;;;;;;;;;5054639;28;20229;-78
2022/05/16 07:15:03;;;;;;;6.53;2.85;;;;;;;;;;5060031;28;20201;-77
2022/05/16 07:17:30;;;;;;;5.10;2.22;;;;;;;;;;5055225;28;20202;-77
2022/05/16 07:19:58;;;;;;;2.15;1.98;;;;;;;;;;5054415;28;20234;-77
2022/05/16 07:22:25;;;;;;;3.13;2.00;;;;;;;;;;5053929;28;20205;-77
2022/05/16 07:24:55;;;;;;;5.43;2.30;;;;;;;;;;5054889;28;20212;-77
2022/05/16 07:30:14;;;;;;;3.22;2.35;;;;;;;;;;5038957;28;20225;-77
2022/05/16 07:32:45;;;;;;;4.80;2.47;;;;;;;;;;5053965;28;20252;-77
2022/05/16 07:35:18;;;;;;;3.72;2.55;;;;;;;;;;5054646;28;20209;-77
2022/05/16 07:37:46;;;;;;;2.53;2.05;;;;;;;;;;5054787;28;20296;-77
2022/05/16 07:40:15;;;;;;;4.00;2.60;;;;;;;;;;5054283;28;20275;-77
2022/05/16 07:42:44;;;;;;;2.45;2.20;;;;;;;;;;5054608;28;20209;-76
2022/05/16 07:45:12;;;;;;;2.25;1.77;;;;;;;;;;5055793;28;20209;-77
2022/05/16 07:47:39;;;;;;;2.53;2.33;;;;;;;;;;5055290;28;20205;-78
2022/05/16 07:50:09;;;;;;;2.95;2.58;;;;;;;;;;5054262;28;20230;-79
2022/05/16 07:52:37;;;;;;;2.70;2.33;;;;;;;;;;5046980;28;20245;-77
2022/05/16 07:55:06;;;;;;;3.75;2.22;;;;;;;;;;5047980;28;20224;-78
2022/05/16 07:57:33;;;;;;;3.03;2.45;;;;;;;;;;5047965;28;20658;-78
2022/05/16 08:00:02;;;;;;;3.22;2.42;;;;;;;;;;5054454;28;20225;-77
2022/05/16 08:02:29;;;;;;;3.20;2.22;;;;;;;;;;5053209;28;20216;-78
2022/05/16 08:04:56;;;;;;;4.60;2.78;;;;;;;;;;5046790;28;20622;-78
2022/05/16 08:07:23;;;;;;;3.75;2.40;;;;;;;;;;5047962;28;20205;-79
2022/05/16 08:12:38;;;;;;;1.98;1.88;;;;;;;;;;5049478;28;20602;-78
2022/05/16 08:15:09;;;;;;;2.88;2.03;;;;;;;;;;5058037;28;20668;-79
2022/05/16 08:17:36;;;;;;;4.00;2.40;;;;;;;;;;5048470;28;20209;-78
2022/05/16 08:20:06;;;;;;;4.20;2.58;;;;;;;;;;5054140;28;20721;-78
2022/05/16 08:22:35;;;;;;;2.95;2.67;;;;;;;;;;5052807;28;20292;-78
2022/05/16 08:25:02;;;;;;;2.70;2.13;;;;;;;;;;5054226;28;20213;-79
2022/05/16 08:27:30;;;;;;;4.40;2.65;;;;;;;;;;5053733;28;20309;-77
2022/05/16 08:29:57;;;;;;;3.03;2.72;;;;;;;;;;5054058;28;20229;-78
2022/05/16 08:32:26;;;;;;;2.35;1.95;;;;;;;;;;5052648;28;20573;-78
2022/05/16 08:34:58;;;;;;;3.38;2.45;;;;;;;;;;5053625;28;20230;-77
2022/05/16 08:40:11;;;;;;;4.95;2.67;;;;;;;;;;5053649;28;20327;-78
2022/05/16 08:42:51;;;;;;;6.43;2.45;;;;;;;;;;5052882;28;20251;-78
2022/05/16 08:45:24;;;;;;;3.92;2.65;;;;;;;;;;5053687;28;20208;-78
2022/05/16 08:47:59;;;;;;;4.85;2.35;;;;;;;;;;5053546;28;20256;-78
2022/05/16 08:50:34;;;;;;;2.58;2.30;;;;;;;;;;5053463;28;20275;-78
2022/05/16 08:53:06;;;;;;;3.08;2.30;;;;;;;;;;5052858;28;20237;-78
2022/05/16 08:55:38;;;;;;;5.03;2.67;;;;;;;;;;5054034;28;20683;-78
2022/05/16 08:58:10;;;;;;;4.35;2.40;;;;;;;;;;5053267;28;20292;-78
2022/05/16 09:00:47;;;;;;;2.60;2.15;;;;;;;;;;5053384;28;20333;-77
2022/05/16 09:03:18;;;;;;;3.08;1.80;;;;;;;;;;5046494;28;20201;-78
2022/05/16 09:05:51;;;;;;;2.55;1.85;;;;;;;;;;5053128;28;20202;-78
2022/05/16 09:08:32;;;;;;;2.72;1.48;;;;;;;;;;5053138;28;20288;-77
2022/05/16 09:11:07;;;;;;;1.98;1.88;;;;;;;;;;5052756;28;20312;-78
2022/05/16 09:13:51;;;;;;;2.63;1.35;;;;;;;;;;5051954;28;20224;-78
2022/05/16 09:16:39;;;;;;;2.65;1.50;;;;;;;;;;5053333;28;20233;-78
2022/05/16 09:19:30;;;;;;;2.95;2.17;;;;;;;;;;5052776;28;20236;-78
2022/05/16 09:22:07;;;;;;;1.55;1.45;;;;;;;;;;5051733;28;20249;-78
2022/05/16 09:24:37;;;;;;;1.83;1.63;;;;;;;;;;5046814;28;20209;-78
2022/05/16 09:27:10;;;;;;;2.00;1.77;;;;;;;;;;5052500;28;20205;-77
2022/05/16 09:29:42;;;;;;;1.98;1.70;;;;;;;;;;5052300;28;20241;-78
2022/05/16 09:32:14;;;;;;;1.90;1.80;;;;;;;;;;5051592;28;20726;-78
2022/05/16 09:34:43;;;;;;;2.65;1.92;;;;;;;;;;5052580;28;20594;-77
2022/05/16 09:37:10;;;;;;;1.95;1.85;;;;;;;;;;5052171;28;20213;-78
2022/05/16 09:39:39;;;;;;;2.40;1.88;;;;;;;;;;5052464;28;20229;-78
2022/05/16 09:42:20;;;;;;;2.33;2.13;;;;;;;;;;5051455;28;20299;-77
2022/05/16 09:44:57;;;;;;;3.45;2.25;;;;;;;;;;5056919;28;20205;-78
2022/05/16 09:47:35;;;;;;;1.70;1.60;;;;;;;;;;5053071;28;20681;-78
2022/05/16 09:50:15;;;;;;;2.35;1.70;;;;;;;;;;5052410;28;20753;-78
2022/05/16 09:52:46;;;;;;;2.05;1.50;;;;;;;;;;5051695;28;20229;-78
2022/05/16 09:55:27;;;;;;;2.45;2.10;;;;;;;;;;5052527;28;20280;-78
2022/05/16 09:57:58;;;;;;;2.28;1.77;;;;;;;;;;5052892;28;20216;-78
2022/05/16 10:00:38;;;;;;;2.20;2.03;;;;;;;;;;5052883;28;20274;-78
2022/05/16 10:03:23;;;;;;;2.47;2.00;;;;;;;;;;5045191;28;20247;-78
2022/05/16 10:05:53;;;;;;;1.85;1.75;;;;;;;;;;5048056;28;20212;-78
2022/05/16 10:08:31;;;;;;;2.17;1.92;;;;;;;;;;5052210;28;20205;-78
2022/05/16 10:11:08;;;;;;;3.70;1.90;;;;;;;;;;5052443;28;20229;-78
2022/05/16 10:13:36;;;;;;;1.60;1.35;;;;;;;;;;5050562;28;20286;-78
2022/05/16 10:16:08;;;;;;;4.18;1.98;;;;;;;;;;5052351;28;20215;-78
2022/05/16 10:18:41;;;;;;;1.95;1.77;;;;;;;;;;5052324;28;20209;-78
2022/05/16 10:21:17;;;;;;;3.83;2.63;;;;;;;;;;5045617;28;20232;-77
2022/05/16 10:23:46;;;;;;;3.45;2.50;;;;;;;;;;5046315;28;20213;-77
2022/05/16 10:26:19;;;;;;;3.22;2.72;;;;;;;;;;5052429;28;20259;-78
2022/05/16 10:28:51;;;;;;;3.25;2.20;;;;;;;;;;5055772;28;20202;-78
2022/05/16 10:34:14;;;;;;;2.58;2.22;;;;;;;;;;5056474;28;20639;-78
2022/05/16 10:36:48;;;;;;;2.28;1.90;;;;;;;;;;5056040;28;20224;-79
2022/05/16 10:39:19;;;;;;;1.77;1.67;;;;;;;;;;5056450;28;20228;-79
2022/05/16 10:41:51;;;;;;;3.95;2.10;;;;;;;;;;5055387;28;20220;-77
2022/05/16 10:44:27;;;;;;;3.63;2.28;;;;;;;;;;5055814;28;20237;-79
2022/05/16 10:47:03;;;;;;;2.05;1.73;;;;;;;;;;5055963;28;20713;-78
2022/05/16 10:49:37;;;;;;;2.75;1.80;;;;;;;;;;5055924;28;20233;-78
2022/05/16 10:52:27;;;;;;;1.63;1.52;;;;;;;;;;5054918;28;20205;-77
2022/05/16 10:54:55;;;;;;;2.13;1.92;;;;;;;;;;5055791;28;20210;-78
2022/05/16 10:57:41;;;;;;;2.53;2.30;;;;;;;;;;5056174;28;20267;-77
2022/05/16 11:00:11;;;;;;;2.40;2.20;;;;;;;;;;5056091;28;20231;-77
2022/05/16 11:02:56;;;;;;;2.03;1.83;;;;;;;;;;5054720;28;20202;-78
2022/05/16 11:05:39;;;;;;;2.45;2.25;;;;;;;;;;5056015;28;20205;-78
2022/05/16 11:08:18;;;;;;;3.47;2.63;;;;;;;;;;5056241;28;20286;-79
2022/05/16 11:10:52;;;;;;;2.55;2.35;;;;;;;;;;5055662;28;20217;-78
2022/05/16 11:13:25;;;;;;;2.00;1.85;;;;;;;;;;5054629;28;20312;-78
2022/05/16 11:15:56;;;;;;;2.55;2.35;;;;;;;;;;5057571;28;20285;-79
2022/05/16 11:18:32;;;;;;;4.22;2.47;;;;;;;;;;5056255;28;20205;-78
2022/05/16 11:21:08;;;;;;;2.67;2.15;;;;;;;;;;5055714;28;20776;-79
2022/05/16 11:23:47;;;;;;;3.30;2.70;;;;;;;;;;5049324;28;20213;-78
2022/05/16 11:26:21;;;;;;;2.80;2.30;;;;;;;;;;5055914;28;20251;-78
2022/05/16 11:29:19;;;;;;;2.30;2.10;;;;;;;;;;5055967;28;20206;-79
2022/05/16 11:31:59;;;;;;;2.25;2.00;;;;;;;;;;5048554;28;20563;-78
2022/05/16 11:35:00;;;;;;;2.40;2.17;;;;;;;;;;5055569;28;20263;-78
2022/05/16 11:37:50;;;;;;;2.15;1.92;;;;;;;;;;5048439;28;20206;-78
2022/05/16 11:40:24;;;;;;;2.55;2.00;;;;;;;;;;5054859;28;20240;-78
2022/05/16 11:43:01;;;;;;;2.50;2.17;;;;;;;;;;5054279;28;20216;-78
2022/05/16 11:45:41;;;;;;;1.90;1.80;;;;;;;;;;5059545;28;20259;-78
2022/05/16 11:48:23;;;;;;;2.28;2.00;;;;;;;;;;5048458;28;20241;-78
2022/05/16 11:50:58;;;;;;;2.70;2.35;;;;;;;;;;5054806;28;20283;-78
2022/05/16 11:53:47;;;;;;;2.53;2.28;;;;;;;;;;5053879;28;20928;-78
2022/05/16 12:02:19;;;;;;;1.70;1.60;;;;;;;;;;5053627;28;20209;-78
2022/05/16 12:04:49;;;;;;;1.50;1.40;;;;;;;;;;5054174;28;20692;-78
2022/05/16 12:07:24;;;;;;;1.55;1.45;;;;;;;;;;5053884;28;20220;-77
2022/05/16 12:10:01;;;;;;;1.50;1.40;;;;;;;;;;5054202;28;20732;-78
2022/05/16 12:12:37;;;;;;;1.48;1.40;;;;;;;;;;5053584;28;20220;-79
2022/05/16 12:15:31;;;;;;;1.58;1.48;;;;;;;;;;5054978;28;20225;-78
2022/05/16 12:18:02;;;;;;;1.40;1.30;;;;;;;;;;5054541;28;20688;-78
2022/05/16 12:21:05;;;;;;;1.25;1.23;;;;;;;;;;5054725;28;20271;-79
2022/05/16 12:24:06;;;;;;;1.42;1.33;;;;;;;;;;5045987;28;20209;-78
2022/05/16 12:27:12;;;;;;;1.70;1.50;;;;;;;;;;5012086;28;20275;-78
2022/05/16 12:29:49;;;;;;;1.60;1.50;;;;;;;;;;5010927;28;20313;-78
2022/05/16 12:32:52;;;;;;;1.92;1.83;;;;;;;;;;5043323;28;20209;-78
2022/05/16 12:35:53;;;;;;;1.70;1.60;;;;;;;;;;5053539;28;20229;-78
2022/05/16 12:38:23;;;;;;;1.60;1.50;;;;;;;;;;5011666;28;20213;-78
2022/05/16 12:41:49;;;;;;;1.77;1.67;;;;;;;;;;5011966;28;20287;-78
2022/05/16 12:44:44;;;;;;;1.70;1.60;;;;;;;;;;5048335;28;20263;-79
2022/05/16 12:48:00;;;;;;;2.78;1.70;;;;;;;;;;5047722;28;20217;-78
2022/05/16 12:51:09;;;;;;;1.60;1.50;;;;;;;;;;5034333;28;20252;-78
2022/05/16 12:54:26;;;;;;;1.48;1.38;;;;;;;;;;5032927;28;20214;-78
2022/05/16 12:56:55;;;;;;;2.47;1.83;;;;;;;;;;5047869;28;20201;-78
2022/05/16 12:59:42;;;;;;;1.65;1.55;;;;;;;;;;5053836;28;20279;-78
2022/05/16 13:02:19;;;;;;;2.22;1.88;;;;;;;;;;5052948;28;20227;-79
2022/05/16 13:05:04;;;;;;;2.92;1.60;;;;;;;;;;5053601;28;20232;-78
2022/05/16 13:07:40;;;;;;;1.42;1.40;;;;;;;;;;5053480;28;20216;-78
2022/05/16 13:10:13;;;;;;;1.77;1.67;;;;;;;;;;5053603;28;20230;-78
2022/05/16 13:12:51;;;;;;;2.05;1.70;;;;;;;;;;5046900;28;20594;-78
2022/05/16 13:15:26;;;;;;;2.28;1.55;;;;;;;;;;5053585;28;20269;-78
2022/05/16 13:17:58;;;;;;;1.80;1.70;;;;;;;;;;5053702;28;20219;-78
2022/05/16 13:20:32;;;;;;;1.55;1.45;;;;;;;;;;5053782;28;20278;-79
2022/05/16 13:23:01;;;;;;;1.77;1.65;;;;;;;;;;5052672;28;20667;-79
2022/05/16 13:25:31;;;;;;;2.50;2.30;;;;;;;;;;5053282;28;20208;-79
2022/05/16 13:30:48;;;;;;;2.72;2.25;;;;;;;;;;5053579;28;20232;-79
2022/05/16 13:33:25;;;;;;;1.40;1.35;;;;;;;;;;5052155;28;20583;-79
2022/05/16 13:35:53;;;;;;;1.60;1.50;;;;;;;;;;5053098;28;20229;-79
2022/05/16 13:38:20;;;;;;;3.33;1.70;;;;;;;;;;5053421;28;20205;-79
2022/05/16 13:40:49;;;;;;;1.60;1.50;;;;;;;;;;5052979;28;20732;-79
2022/05/16 13:43:20;;;;;;;1.63;1.52;;;;;;;;;;5052386;28;20670;-79
2022/05/16 13:45:48;;;;;;;1.90;1.80;;;;;;;;;;5055923;28;20205;-79
2022/05/16 13:48:18;;;;;;;2.03;1.92;;;;;;;;;;5053810;28;20209;-79
2022/05/16 13:50:48;;;;;;;2.05;1.80;;;;;;;;;;5052996;28;20244;-79
2022/05/16 13:53:17;;;;;;;2.38;2.17;;;;;;;;;;5052168;28;20202;-79
2022/05/16 13:55:46;;;;;;;2.05;1.95;;;;;;;;;;5052615;28;20225;-79
2022/05/16 13:58:14;;;;;;;1.83;1.73;;;;;;;;;;5052690;28;20264;-79
2022/05/16 14:00:46;;;;;;;2.03;1.92;;;;;;;;;;5052911;28;20233;-80
2022/05/16 14:03:27;;;;;;;2.30;2.10;;;;;;;;;;5052128;28;20210;-79
2022/05/16 14:05:57;;;;;;;1.60;1.50;;;;;;;;;;5052241;28;20256;-79
2022/05/16 14:08:31;;;;;;;3.05;1.90;;;;;;;;;;5046171;28;20263;-79
2022/05/16 14:10:59;;;;;;;2.17;1.90;;;;;;;;;;5052375;28;20228;-79
2022/05/16 14:13:29;;;;;;;2.45;2.25;;;;;;;;;;5052129;28;20209;-79
2022/05/16 14:16:01;;;;;;;2.83;2.05;;;;;;;;;;5058489;28;20596;-79
2022/05/16 14:18:38;;;;;;;2.72;2.25;;;;;;;;;;5052182;28;20733;-79
2022/05/16 14:21:18;;;;;;;3.15;2.42;;;;;;;;;;5052031;28;20209;-78
2022/05/16 14:23:58;;;;;;;2.88;2.05;;;;;;;;;;5051480;28;20308;-79
2022/05/16 14:26:29;;;;;;;2.55;2.35;;;;;;;;;;5052494;28;20292;-79
2022/05/16 14:29:12;;;;;;;2.63;2.22;;;;;;;;;;5046165;28;20198;-81
2022/05/16 14:31:45;;;;;;;1.90;1.80;;;;;;;;;;5047279;28;20209;-79
2022/05/16 14:34:25;;;;;;;2.03;1.63;;;;;;;;;;5052523;28;20237;-79
2022/05/16 14:37:02;;;;;;;2.13;1.92;;;;;;;;;;5052190;28;20213;-79
2022/05/16 14:39:33;;;;;;;2.08;1.88;;;;;;;;;;5052081;28;20229;-78
2022/05/16 14:42:09;;;;;;;2.05;1.95;;;;;;;;;;5045864;28;20206;-79
2022/05/16 14:44:40;;;;;;;2.10;1.88;;;;;;;;;;5048348;28;20214;-79
2022/05/16 14:47:26;;;;;;;3.13;2.17;;;;;;;;;;5052372;28;20639;-79
2022/05/16 14:49:54;;;;;;;2.20;2.00;;;;;;;;;;5052331;28;20251;-79
2022/05/16 14:52:29;;;;;;;2.53;2.13;;;;;;;;;;5050980;28;20206;-78
2022/05/16 14:55:01;;;;;;;3.10;2.35;;;;;;;;;;5052295;28;20306;-79
2022/05/16 14:57:28;;;;;;;1.90;1.80;;;;;;;;;;5051874;28;20205;-78
2022/05/16 14:59:56;;;;;;;2.72;2.53;;;;;;;;;;5052139;28;20221;-80
2022/05/16 15:05:08;;;;;;;2.90;2.20;;;;;;;;;;5053304;28;20670;-79
2022/05/16 15:07:40;;;;;;;4.43;2.25;;;;;;;;;;5051573;28;20267;-78
2022/05/16 15:10:12;;;;;;;2.22;2.10;;;;;;;;;;5051367;28;20229;-78
2022/05/16 15:12:42;;;;;;;2.50;2.28;;;;;;;;;;5051030;28;20206;-78
2022/05/16 15:15:10;;;;;;;2.50;2.30;;;;;;;;;;5060650;28;20252;-78
2022/05/16 15:17:38;;;;;;;3.65;2.47;;;;;;;;;;5055398;28;20297;-78
2022/05/16 15:20:07;;;;;;;2.58;2.38;;;;;;;;;;5062983;28;20231;-78
2022/05/16 15:22:37;;;;;;;3.88;2.33;;;;;;;;;;5059089;28;20296;-77
2022/05/16 15:25:06;;;;;;;2.55;2.35;;;;;;;;;;5061653;28;20210;-78
2022/05/16 15:27:34;;;;;;;2.00;1.90;;;;;;;;;;5064447;28;20756;-79
2022/05/16 15:30:04;;;;;;;2.60;2.40;;;;;;;;;;5063928;28;20645;-78
2022/05/16 15:32:31;;;;;;;2.30;2.17;;;;;;;;;;5062318;28;20210;-77
2022/05/16 15:34:59;;;;;;;2.00;1.90;;;;;;;;;;5061101;28;20665;-77
2022/05/16 15:37:26;;;;;;;1.90;1.80;;;;;;;;;;5062500;28;20236;-78
2022/05/16 15:39:57;;;;;;;2.15;1.98;;;;;;;;;;5061797;28;20233;-78
2022/05/16 15:42:26;;;;;;;1.63;1.48;;;;;;;;;;5060079;28;20664;-78
2022/05/16 15:44:54;;;;;;;1.60;1.50;;;;;;;;;;5062011;28;20210;-78
2022/05/16 15:47:24;;;;;;;1.70;1.60;;;;;;;;;;5059327;28;20670;-77
2022/05/16 15:49:53;;;;;;;2.75;1.83;;;;;;;;;;5059808;28;20233;-78
2022/05/16 15:52:22;;;;;;;1.90;1.80;;;;;;;;;;5060452;28;20212;-78